David M Fleming — WDE3731 — position and weather

sailwx.info

Track history (hours):
 
Tides and Currents Weather Stations Pressure Air Temp Water Temp Dewpoint Dewpoint Depression Visibility Wind Speed Wind Dir Waves Ship Positions

David M Fleming

Owner: ACL Transportation Services LLC, Jeffersonville, IN. More information available from US FCC via Universal Licensing System and Coast Guard Vessel Documentation Center.

Last reported at 2018-Jun-08 09:02 UTC. Time now 2018-Jun-21 02:55 UTC.
Position N 29°46' W 095°06'.
Warning: this ship's position is 12 days out of date.

MMSI: 367343420.

Date/timePositionNaut miles runAvg speedWind from/ knotsBaromVisibWave heightAir tempDewpointWater temp
2018-Jun-08 09:02N 29°46' W 095°06'0 0.0
2018-Jun-08 02:44N 29°46' W 095°06'1 1.9
2018-Jun-08 02:22N 29°45' W 095°06'  
2018-Jun-05 04:52N 29°45' W 095°12'5 0.1
2018-Jun-03 06:00N 29°46' W 095°06'0 0.0
2018-Jun-03 05:27N 29°46' W 095°06'0 0.0
2018-Jun-03 04:57N 29°46' W 095°06'0 0.0
2018-Jun-03 03:43N 29°46' W 095°06'  
2018-May-30 06:55N 29°46' W 095°06'0 0.0
2018-May-30 06:29N 29°46' W 095°06'0 0.0
2018-May-30 06:00N 29°46' W 095°06'0 0.0
2018-May-30 05:30N 29°46' W 095°06'0 0.1
2018-May-30 04:48N 29°46' W 095°06'1 3.0
2018-May-30 04:30N 29°46' W 095°07'1 1.7
2018-May-30 03:59N 29°46' W 095°06'0 0.0
2018-May-30 03:30N 29°46' W 095°06'1 0.0
2018-May-29 13:38N 29°46' W 095°07'0 0.1
2018-May-29 13:30N 29°46' W 095°07'1 1.5
2018-May-29 13:00N 29°46' W 095°06'0 0.0
2018-May-29 10:06N 29°46' W 095°06'0 0.2
2018-May-29 09:57N 29°46' W 095°06'  
Track history (hours):
 
Tides and Currents Weather Stations Pressure Air Temp Water Temp Dewpoint Dewpoint Depression Visibility Wind Speed Wind Dir Waves Ship Positions

David M Fleming

Owner: ACL Transportation Services LLC, Jeffersonville, IN. More information available from US FCC via Universal Licensing System and Coast Guard Vessel Documentation Center.

Last reported at 2018-Jun-08 09:02 UTC. Time now 2018-Jun-21 02:55 UTC.
Position N 29°46' W 095°06'.
Warning: this ship's position is 12 days out of date.

MMSI: 367343420.

Date/timePositionNaut miles runAvg speedWind from/ knotsBaromVisibWave heightAir tempDewpointWater temp
2018-Jun-08 09:02N 29°46' W 095°06'0 0.0
2018-Jun-08 02:44N 29°46' W 095°06'1 1.9
2018-Jun-08 02:22N 29°45' W 095°06'  
2018-Jun-05 04:52N 29°45' W 095°12'5 0.1
2018-Jun-03 06:00N 29°46' W 095°06'0 0.0
2018-Jun-03 05:27N 29°46' W 095°06'0 0.0
2018-Jun-03 04:57N 29°46' W 095°06'0 0.0
2018-Jun-03 03:43N 29°46' W 095°06'  
2018-May-30 06:55N 29°46' W 095°06'0 0.0
2018-May-30 06:29N 29°46' W 095°06'0 0.0
2018-May-30 06:00N 29°46' W 095°06'0 0.0
2018-May-30 05:30N 29°46' W 095°06'0 0.1
2018-May-30 04:48N 29°46' W 095°06'1 3.0
2018-May-30 04:30N 29°46' W 095°07'1 1.7
2018-May-30 03:59N 29°46' W 095°06'0 0.0
2018-May-30 03:30N 29°46' W 095°06'1 0.0
2018-May-29 13:38N 29°46' W 095°07'0 0.1
2018-May-29 13:30N 29°46' W 095°07'1 1.5
2018-May-29 13:00N 29°46' W 095°06'0 0.0
2018-May-29 10:06N 29°46' W 095°06'0 0.2
2018-May-29 09:57N 29°46' W 095°06'  

Dump ship's entire track history